sensor_id;sensor_type;location;lat;lon;timestamp;pressure;altitude;pressure_sealevel;temperature;humidity
67499;BME280;54345;42.670;23.218;2023-02-21T09:59:38;92576.50;;;13.83;46.33
67499;BME280;54345;42.670;23.218;2023-02-21T10:07:20;92568.22;;;14.03;46.52
67499;BME280;54345;42.670;23.218;2023-02-21T10:12:45;92561.13;;;14.36;45.77
67499;BME280;54345;42.670;23.218;2023-02-21T10:21:11;92568.38;;;14.26;44.03
67499;BME280;54345;42.670;23.218;2023-02-21T10:23:47;92556.75;;;14.40;44.75
67499;BME280;54345;42.670;23.218;2023-02-21T10:26:24;92561.50;;;14.47;45.38
67499;BME280;54345;42.670;23.218;2023-02-21T10:28:51;92561.50;;;14.47;42.35
67499;BME280;54345;42.670;23.218;2023-02-21T10:31:33;92544.53;;;14.41;39.79
67499;BME280;54345;42.670;23.218;2023-02-21T10:34:00;92551.66;;;14.52;38.63
67499;BME280;54345;42.670;23.218;2023-02-21T10:36:27;92528.66;;;14.55;38.66
67499;BME280;54345;42.670;23.218;2023-02-21T10:39:03;92543.75;;;15.06;39.05
67499;BME280;54345;42.670;23.218;2023-02-21T10:41:34;92539.31;;;14.81;38.57
67499;BME280;54345;42.670;23.218;2023-02-21T10:44:08;92532.97;;;15.01;38.66
67499;BME280;54345;42.670;23.218;2023-02-21T10:46:59;92533.31;;;14.97;39.31
67499;BME280;54345;42.670;23.218;2023-02-21T10:52:17;92526.59;;;15.35;40.04
67499;BME280;54345;42.670;23.218;2023-02-21T10:55:02;92522.53;;;14.92;38.16
67499;BME280;54345;42.670;23.218;2023-02-21T10:57:30;92522.00;;;14.93;38.25
67499;BME280;54345;42.670;23.218;2023-02-21T10:59:59;92517.63;;;14.98;39.16
67499;BME280;54345;42.670;23.218;2023-02-21T11:02:39;92511.53;;;14.69;38.69
67499;BME280;54345;42.670;23.218;2023-02-21T11:05:15;92515.59;;;14.91;38.70
67499;BME280;54345;42.670;23.218;2023-02-21T11:08:15;92495.13;;;14.84;39.13
67499;BME280;54345;42.670;23.218;2023-02-21T11:10:43;92501.31;;;14.85;39.45
67499;BME280;54345;42.670;23.218;2023-02-21T11:13:19;92492.56;;;14.94;38.47
67499;BME280;54345;42.670;23.218;2023-02-21T11:15:46;92497.34;;;15.31;39.00
67499;BME280;54345;42.670;23.218;2023-02-21T11:18:18;92482.88;;;15.52;38.43
67499;BME280;54345;42.670;23.218;2023-02-21T11:20:46;92480.13;;;15.23;38.11
67499;BME280;54345;42.670;23.218;2023-02-21T11:24:06;92484.50;;;15.55;38.16
67499;BME280;54345;42.670;23.218;2023-02-21T11:26:08;92467.34;;;15.32;38.20
67499;BME280;54345;42.670;23.218;2023-02-21T11:28:37;92467.91;;;15.38;39.07
67499;BME280;54345;42.670;23.218;2023-02-21T11:31:28;92457.25;;;15.27;38.81
67499;BME280;54345;42.670;23.218;2023-02-21T11:34:03;92463.69;;;15.30;38.49
67499;BME280;54345;42.670;23.218;2023-02-21T11:36:38;92456.34;;;15.47;39.42
67499;BME280;54345;42.670;23.218;2023-02-21T11:41:50;92456.34;;;15.55;39.25
67499;BME280;54345;42.670;23.218;2023-02-21T11:44:39;92462.53;;;15.70;38.70
67499;BME280;54345;42.670;23.218;2023-02-21T11:47:20;92437.81;;;15.78;38.06
67499;BME280;54345;42.670;23.218;2023-02-21T11:50:17;92439.56;;;15.98;38.30
67499;BME280;54345;42.670;23.218;2023-02-21T11:52:53;92439.47;;;15.73;37.70
67499;BME280;54345;42.670;23.218;2023-02-21T11:55:23;92433.75;;;15.86;38.08
67499;BME280;54345;42.670;23.218;2023-02-21T12:00:53;92412.88;;;15.83;39.15
67499;BME280;54345;42.670;23.218;2023-02-21T12:10:02;92423.22;;;16.07;38.21
67499;BME280;54345;42.670;23.218;2023-02-21T12:15:05;92395.38;;;16.11;38.92
67499;BME280;54345;42.670;23.218;2023-02-21T12:17:48;92398.09;;;15.79;39.20
67499;BME280;54345;42.670;23.218;2023-02-21T12:20:30;92385.84;;;15.72;39.75
67499;BME280;54345;42.670;23.218;2023-02-21T12:23:24;92382.31;;;15.79;40.70
67499;BME280;54345;42.670;23.218;2023-02-21T12:29:08;92384.84;;;15.38;41.25
67499;BME280;54345;42.670;23.218;2023-02-21T12:45:55;92377.56;;;14.96;41.66
67499;BME280;54345;42.670;23.218;2023-02-21T12:50:58;92371.81;;;15.53;41.49
67499;BME280;54345;42.670;23.218;2023-02-21T12:53:35;92370.31;;;15.60;39.80
67499;BME280;54345;42.670;23.218;2023-02-21T12:56:26;92365.09;;;15.86;41.00
67499;BME280;54345;42.670;23.218;2023-02-21T12:59:02;92361.19;;;15.65;39.92
67499;BME280;54345;42.670;23.218;2023-02-21T13:01:32;92356.44;;;15.58;39.78
67499;BME280;54345;42.670;23.218;2023-02-21T13:06:35;92354.47;;;15.90;40.64
67499;BME280;54345;42.670;23.218;2023-02-21T13:11:38;92346.94;;;15.91;39.71
67499;BME280;54345;42.670;23.218;2023-02-21T13:17:26;92349.16;;;16.24;37.90
67499;BME280;54345;42.670;23.218;2023-02-21T13:20:16;92333.91;;;16.31;37.97
67499;BME280;54345;42.670;23.218;2023-02-21T13:26:15;92330.22;;;16.60;36.76
67499;BME280;54345;42.670;23.218;2023-02-21T13:28:50;92335.41;;;16.73;37.05
67499;BME280;54345;42.670;23.218;2023-02-21T13:31:20;92323.44;;;16.61;37.05
67499;BME280;54345;42.670;23.218;2023-02-21T13:33:56;92328.81;;;16.52;37.70
67499;BME280;54345;42.670;23.218;2023-02-21T13:36:25;92320.22;;;16.72;36.78
67499;BME280;54345;42.670;23.218;2023-02-21T13:39:03;92321.66;;;16.73;36.39
67499;BME280;54345;42.670;23.218;2023-02-21T13:41:33;92318.31;;;16.58;36.30
67499;BME280;54345;42.670;23.218;2023-02-21T13:44:05;92316.16;;;16.73;35.44
67499;BME280;54345;42.670;23.218;2023-02-21T13:57:39;92294.53;;;16.77;35.10
67499;BME280;54345;42.670;23.218;2023-02-21T14:11:34;92291.00;;;17.18;31.82
67499;BME280;54345;42.670;23.218;2023-02-21T14:14:04;92301.06;;;17.40;31.92
67499;BME280;54345;42.670;23.218;2023-02-21T14:22:03;92292.66;;;17.38;30.63
67499;BME280;54345;42.670;23.218;2023-02-21T14:24:38;92294.72;;;17.30;30.70
67499;BME280;54345;42.670;23.218;2023-02-21T14:29:45;92296.34;;;17.16;31.04
67499;BME280;54345;42.670;23.218;2023-02-21T14:32:45;92285.31;;;16.99;31.18
67499;BME280;54345;42.670;23.218;2023-02-21T14:35:32;92292.09;;;17.15;31.25
67499;BME280;54345;42.670;23.218;2023-02-21T14:38:03;92288.78;;;17.00;31.17
67499;BME280;54345;42.670;23.218;2023-02-21T14:43:36;92285.97;;;17.07;30.78
67499;BME280;54345;42.670;23.218;2023-02-21T14:46:22;92285.00;;;16.95;30.58
67499;BME280;54345;42.670;23.218;2023-02-21T14:52:22;92290.00;;;16.89;30.59
67499;BME280;54345;42.670;23.218;2023-02-21T15:00:50;92280.69;;;16.85;30.46
67499;BME280;54345;42.670;23.218;2023-02-21T15:03:28;92277.63;;;16.81;30.12
67499;BME280;54345;42.670;23.218;2023-02-21T15:06:04;92296.06;;;16.71;29.98
67499;BME280;54345;42.670;23.218;2023-02-21T15:08:40;92292.72;;;16.72;30.36
67499;BME280;54345;42.670;23.218;2023-02-21T15:11:17;92281.63;;;16.63;30.34
67499;BME280;54345;42.670;23.218;2023-02-21T15:13:43;92276.59;;;16.52;29.89
67499;BME280;54345;42.670;23.218;2023-02-21T15:16:11;92292.19;;;16.49;30.20
67499;BME280;54345;42.670;23.218;2023-02-21T15:18:39;92291.34;;;16.39;30.63
67499;BME280;54345;42.670;23.218;2023-02-21T15:23:40;92294.53;;;16.28;30.45
67499;BME280;54345;42.670;23.218;2023-02-21T15:26:16;92290.16;;;16.25;30.69
67499;BME280;54345;42.670;23.218;2023-02-21T15:28:43;92284.81;;;16.03;30.92
67499;BME280;54345;42.670;23.218;2023-02-21T15:31:10;92293.22;;;16.05;30.47
67499;BME280;54345;42.670;23.218;2023-02-21T15:33:41;92286.28;;;15.72;30.91
67499;BME280;54345;42.670;23.218;2023-02-21T15:36:19;92296.22;;;15.60;31.02
67499;BME280;54345;42.670;23.218;2023-02-21T15:38:53;92300.81;;;15.57;31.00
67499;BME280;54345;42.670;23.218;2023-02-21T15:41:31;92303.81;;;15.37;31.24
67499;BME280;54345;42.670;23.218;2023-02-21T15:44:11;92316.09;;;15.36;31.48
67499;BME280;54345;42.670;23.218;2023-02-21T15:49:19;92306.78;;;15.24;31.87
67499;BME280;54345;42.670;23.218;2023-02-21T15:51:45;92314.31;;;15.09;31.91
67499;BME280;54345;42.670;23.218;2023-02-21T15:56:44;92309.22;;;14.98;31.99
67499;BME280;54345;42.670;23.218;2023-02-21T15:59:17;92311.41;;;14.92;32.47
67499;BME280;54345;42.670;23.218;2023-02-21T16:01:43;92313.63;;;14.86;32.67
67499;BME280;54345;42.670;23.218;2023-02-21T16:04:20;92313.25;;;14.82;32.31
67499;BME280;54345;42.670;23.218;2023-02-21T16:06:52;92313.09;;;14.72;32.21
67499;BME280;54345;42.670;23.218;2023-02-21T16:11:52;92322.41;;;14.62;32.58
67499;BME280;54345;42.670;23.218;2023-02-21T16:14:23;92319.84;;;14.79;32.37
67499;BME280;54345;42.670;23.218;2023-02-21T16:19:30;92332.44;;;14.82;31.87
67499;BME280;54345;42.670;23.218;2023-02-21T16:24:45;92326.25;;;14.66;31.70
67499;BME280;54345;42.670;23.218;2023-02-21T16:27:14;92339.38;;;14.90;31.45
67499;BME280;54345;42.670;23.218;2023-02-21T16:29:41;92318.56;;;14.65;31.44
67499;BME280;54345;42.670;23.218;2023-02-21T16:32:17;92331.91;;;14.68;31.63
67499;BME280;54345;42.670;23.218;2023-02-21T16:34:45;92332.09;;;14.63;31.26
67499;BME280;54345;42.670;23.218;2023-02-21T16:37:13;92330.28;;;14.65;31.42
67499;BME280;54345;42.670;23.218;2023-02-21T16:39:39;92335.03;;;14.50;31.97
67499;BME280;54345;42.670;23.218;2023-02-21T16:42:05;92334.69;;;14.46;31.97
67499;BME280;54345;42.670;23.218;2023-02-21T16:44:31;92336.69;;;14.30;32.22
67499;BME280;54345;42.670;23.218;2023-02-21T16:46:57;92333.91;;;14.23;32.50
67499;BME280;54345;42.670;23.218;2023-02-21T16:49:23;92326.22;;;14.14;32.30
67499;BME280;54345;42.670;23.218;2023-02-21T16:51:49;92325.47;;;13.98;32.55
67499;BME280;54345;42.670;23.218;2023-02-21T16:54:15;92341.75;;;14.11;32.82
67499;BME280;54345;42.670;23.218;2023-02-21T16:56:43;92345.25;;;14.19;32.41
67499;BME280;54345;42.670;23.218;2023-02-21T16:59:15;92347.63;;;14.30;32.06
67499;BME280;54345;42.670;23.218;2023-02-21T17:01:41;92335.75;;;14.28;32.11
67499;BME280;54345;42.670;23.218;2023-02-21T17:04:21;92338.13;;;14.24;32.29
67499;BME280;54345;42.670;23.218;2023-02-21T17:07:00;92348.16;;;14.29;32.40
67499;BME280;54345;42.670;23.218;2023-02-21T17:09:28;92339.00;;;14.11;32.72
67499;BME280;54345;42.670;23.218;2023-02-21T17:11:54;92345.78;;;14.18;32.58
67499;BME280;54345;42.670;23.218;2023-02-21T17:14:21;92337.34;;;14.08;32.85
67499;BME280;54345;42.670;23.218;2023-02-21T17:16:47;92351.59;;;14.07;32.98
67499;BME280;54345;42.670;23.218;2023-02-21T17:21:00;92350.19;;;14.36;32.96
67499;BME280;54345;42.670;23.218;2023-02-21T17:23:27;92354.03;;;14.55;32.73
67499;BME280;54345;42.670;23.218;2023-02-21T17:25:53;92351.06;;;14.16;32.87
67499;BME280;54345;42.670;23.218;2023-02-21T17:28:18;92342.25;;;13.95;33.00
67499;BME280;54345;42.670;23.218;2023-02-21T17:30:44;92343.72;;;13.96;33.17
67499;BME280;54345;42.670;23.218;2023-02-21T17:33:12;92345.19;;;14.12;32.83
67499;BME280;54345;42.670;23.218;2023-02-21T17:35:38;92350.84;;;14.06;33.12
67499;BME280;54345;42.670;23.218;2023-02-21T17:38:04;92343.91;;;14.13;33.68
67499;BME280;54345;42.670;23.218;2023-02-21T17:40:30;92347.56;;;14.00;33.40
67499;BME280;54345;42.670;23.218;2023-02-21T17:42:56;92348.31;;;14.08;33.42
67499;BME280;54345;42.670;23.218;2023-02-21T17:45:22;92343.88;;;13.83;33.56
67499;BME280;54345;42.670;23.218;2023-02-21T17:47:49;92340.75;;;13.79;33.83
67499;BME280;54345;42.670;23.218;2023-02-21T17:50:16;92348.75;;;13.62;34.19
67499;BME280;54345;42.670;23.218;2023-02-21T17:52:42;92343.44;;;13.56;34.24
67499;BME280;54345;42.670;23.218;2023-02-21T17:55:10;92348.16;;;13.56;34.53
67499;BME280;54345;42.670;23.218;2023-02-21T17:57:40;92341.44;;;13.64;34.28
67499;BME280;54345;42.670;23.218;2023-02-21T18:00:14;92358.00;;;13.59;34.58
67499;BME280;54345;42.670;23.218;2023-02-21T18:02:40;92355.56;;;13.40;35.02
67499;BME280;54345;42.670;23.218;2023-02-21T18:05:06;92356.69;;;13.45;34.98
67499;BME280;54345;42.670;23.218;2023-02-21T18:07:33;92354.81;;;13.40;36.11
67499;BME280;54345;42.670;23.218;2023-02-21T18:10:00;92352.53;;;13.59;36.94
67499;BME280;54345;42.670;23.218;2023-02-21T18:12:28;92358.84;;;13.39;36.29
67499;BME280;54345;42.670;23.218;2023-02-21T18:14:54;92349.03;;;13.08;36.93
67499;BME280;54345;42.670;23.218;2023-02-21T18:17:20;92350.59;;;12.96;37.44
67499;BME280;54345;42.670;23.218;2023-02-21T18:19:46;92357.69;;;13.27;36.63
67499;BME280;54345;42.670;23.218;2023-02-21T18:59:01;92367.25;;;12.85;38.91
67499;BME280;54345;42.670;23.218;2023-02-21T19:01:26;92365.78;;;12.84;39.05
67499;BME280;54345;42.670;23.218;2023-02-21T19:03:53;92382.25;;;12.91;39.48
67499;BME280;54345;42.670;23.218;2023-02-21T19:06:20;92385.09;;;13.06;39.75
